Time;durP1;ratioP1;P1;durP2;ratioP2;P2;SDS_P1;SDS_P2;PMS_P1;PMS_P2;Temp;Humidity;BMP_temperature;BMP_pressure;BME280_temperature;BME280_humidity;BME280_pressure;Samples;Min_cycle;Max_cycle;Signal;HPM_P1;HPM_P2
2023/12/03 00:02:11;;;;;;;51.10;19.13;;;2.60;87.20;;;;;;9176504;19;20025;-73
2023/12/03 00:05:21;;;;;;;41.53;16.48;;;2.60;87.20;;;;;;9180229;19;20022;-73
2023/12/03 00:08:27;;;;;;;49.83;17.75;;;2.60;87.30;;;;;;9178265;19;20619;-73
2023/12/03 00:11:53;;;;;;;41.17;17.65;;;2.60;87.30;;;;;;9180355;19;20007;-73
2023/12/03 00:14:59;;;;;;;40.20;17.67;;;2.60;87.30;;;;;;9179687;19;20014;-74
2023/12/03 00:18:06;;;;;;;37.33;16.83;;;2.60;87.30;;;;;;9180928;19;20480;-74
2023/12/03 00:21:15;;;;;;;35.78;16.55;;;2.60;87.30;;;;;;9179614;19;20064;-73
2023/12/03 00:24:23;;;;;;;43.08;17.58;;;2.70;87.30;;;;;;9180717;19;20018;-73
2023/12/03 00:27:28;;;;;;;42.50;18.30;;;2.60;87.30;;;;;;9180439;19;20014;-72
2023/12/03 00:30:36;;;;;;;41.88;17.77;;;2.70;87.30;;;;;;9176892;19;20015;-72
2023/12/03 00:33:41;;;;;;;44.17;16.80;;;2.60;87.30;;;;;;9180423;19;20040;-72
2023/12/03 00:36:52;;;;;;;48.22;17.83;;;2.60;87.30;;;;;;9180088;19;20021;-74
2023/12/03 00:39:57;;;;;;;41.33;17.75;;;2.70;87.30;;;;;;9180038;19;20018;-75
2023/12/03 00:43:05;;;;;;;48.33;17.58;;;2.70;87.30;;;;;;9180169;19;20022;-72
2023/12/03 00:46:11;;;;;;;44.92;17.10;;;2.70;87.30;;;;;;9179366;19;20022;-73
2023/12/03 00:49:18;;;;;;;42.33;17.85;;;2.70;87.30;;;;;;9178263;19;20034;-72
2023/12/03 00:52:26;;;;;;;40.47;16.45;;;2.70;87.40;;;;;;9179184;19;20041;-73
2023/12/03 00:55:34;;;;;;;43.75;18.17;;;2.70;87.40;;;;;;9178254;19;20021;-73
2023/12/03 00:58:40;;;;;;;46.25;17.70;;;2.70;87.40;;;;;;9174908;19;20109;-74
2023/12/03 01:01:47;;;;;;;43.75;18.42;;;2.70;87.40;;;;;;9178433;19;20025;-74
2023/12/03 01:04:53;;;;;;;55.03;18.65;;;2.70;87.50;;;;;;9173844;19;20026;-73
2023/12/03 01:08:04;;;;;;;51.05;18.10;;;2.70;87.40;;;;;;9173920;19;20026;-72
2023/12/03 01:11:10;;;;;;;44.95;18.92;;;2.70;87.40;;;;;;9170510;19;20966;-74
2023/12/03 01:14:18;;;;;;;50.10;18.35;;;2.80;87.40;;;;;;9172838;19;20030;-73
2023/12/03 01:17:24;;;;;;;48.85;18.92;;;2.70;87.30;;;;;;9171447;19;20025;-71
2023/12/03 01:20:32;;;;;;;51.47;19.50;;;2.70;87.30;;;;;;9177861;19;20025;-71
2023/12/03 01:23:40;;;;;;;47.35;18.20;;;2.70;87.30;;;;;;9176868;19;20062;-72
2023/12/03 01:26:48;;;;;;;49.47;18.55;;;2.80;87.40;;;;;;9178133;19;20018;-71
2023/12/03 01:29:53;;;;;;;48.90;17.10;;;2.70;87.30;;;;;;9176274;19;20015;-71
2023/12/03 01:33:01;;;;;;;49.08;18.05;;;2.70;87.30;;;;;;9176732;19;20014;-71
2023/12/03 01:36:08;;;;;;;47.15;17.42;;;2.70;87.30;;;;;;9177238;19;20018;-72
2023/12/03 01:39:18;;;;;;;55.70;18.85;;;2.70;87.40;;;;;;9177437;19;20020;-71
2023/12/03 01:42:25;;;;;;;51.95;17.80;;;2.70;87.40;;;;;;9177173;19;20007;-71
2023/12/03 01:45:33;;;;;;;52.67;19.70;;;2.70;87.30;;;;;;9175944;19;20018;-72
2023/12/03 01:48:39;;;;;;;50.88;18.27;;;2.70;87.40;;;;;;9177666;19;20018;-72
2023/12/03 01:51:48;;;;;;;50.30;17.58;;;2.80;87.40;;;;;;9174950;19;20835;-69
2023/12/03 01:54:57;;;;;;;46.22;17.25;;;2.70;87.40;;;;;;9176918;19;20018;-71
2023/12/03 01:58:05;;;;;;;56.83;18.98;;;2.70;87.30;;;;;;9173470;19;20022;-72
2023/12/03 02:01:11;;;;;;;46.55;17.85;;;2.80;87.40;;;;;;9176260;19;20026;-69
2023/12/03 02:04:18;;;;;;;59.97;18.85;;;2.70;87.40;;;;;;9176297;19;20479;-71
2023/12/03 02:07:24;;;;;;;47.90;17.13;;;2.70;87.50;;;;;;9175257;19;20074;-71
2023/12/03 02:10:34;;;;;;;47.30;17.88;;;2.80;87.60;;;;;;9175079;19;20376;-71
2023/12/03 02:13:41;;;;;;;57.47;17.95;;;2.80;87.60;;;;;;9174873;19;20018;-70
2023/12/03 02:16:49;;;;;;;47.33;18.17;;;2.70;87.50;;;;;;9174338;19;20356;-71
2023/12/03 02:19:55;;;;;;;53.85;17.83;;;2.80;87.50;;;;;;9175885;19;20025;-72
2023/12/03 02:23:05;;;;;;;51.30;16.98;;;2.70;87.40;;;;;;9175658;19;20023;-71
2023/12/03 02:26:22;;;;;;;46.42;17.77;;;2.70;87.50;;;;;;9174335;19;20029;-69
2023/12/03 02:29:27;;;;;;;47.95;18.33;;;2.80;87.60;;;;;;9175193;19;20043;-69
2023/12/03 02:32:35;;;;;;;56.80;18.05;;;2.80;87.50;;;;;;9175329;19;20027;-70
2023/12/03 02:35:40;;;;;;;47.60;16.65;;;2.80;87.50;;;;;;9175281;19;20030;-71
2023/12/03 02:38:51;;;;;;;46.50;17.95;;;2.80;87.60;;;;;;9174849;19;20034;-70
2023/12/03 02:41:56;;;;;;;49.25;17.80;;;2.80;87.60;;;;;;9171694;19;20264;-70
2023/12/03 02:45:05;;;;;;;60.63;19.23;;;2.80;87.50;;;;;;9174982;19;20034;-70
2023/12/03 02:48:10;;;;;;;48.35;18.50;;;2.80;87.50;;;;;;9175056;19;20748;-69
2023/12/03 02:51:18;;;;;;;50.30;19.35;;;2.70;87.40;;;;;;9173267;19;20018;-70
2023/12/03 02:54:26;;;;;;;54.88;19.55;;;2.80;87.50;;;;;;9174651;19;20367;-70
2023/12/03 02:57:34;;;;;;;55.00;18.50;;;2.80;87.40;;;;;;9168300;19;20017;-72
2023/12/03 03:00:40;;;;;;;50.92;18.60;;;2.70;87.40;;;;;;9169749;19;20022;-68
2023/12/03 03:03:48;;;;;;;50.25;20.30;;;2.80;87.50;;;;;;9171058;19;20570;-68
2023/12/03 03:06:53;;;;;;;53.50;19.50;;;2.70;87.30;;;;;;9171732;19;20019;-69
2023/12/03 03:10:03;;;;;;;55.50;19.13;;;2.70;87.40;;;;;;9169733;19;20380;-69
2023/12/03 03:13:10;;;;;;;50.13;17.98;;;2.70;87.40;;;;;;9168895;19;20021;-70
2023/12/03 03:16:18;;;;;;;54.60;18.35;;;2.70;87.40;;;;;;9167167;19;20496;-68
2023/12/03 03:19:23;;;;;;;47.00;18.05;;;2.60;87.40;;;;;;9177363;19;20520;-70
2023/12/03 03:22:31;;;;;;;56.53;18.65;;;2.70;87.50;;;;;;9178808;19;20018;-70
2023/12/03 03:25:39;;;;;;;52.75;17.63;;;2.70;87.50;;;;;;9181403;19;20483;-68
2023/12/03 03:28:47;;;;;;;55.00;17.63;;;2.70;87.60;;;;;;9180418;19;20023;-68
2023/12/03 03:31:52;;;;;;;47.28;16.73;;;2.70;87.60;;;;;;9179634;19;20650;-68
2023/12/03 03:35:00;;;;;;;49.22;18.77;;;2.70;87.60;;;;;;9180223;19;20011;-69
2023/12/03 03:38:05;;;;;;;45.70;17.13;;;2.70;87.60;;;;;;9180289;19;20019;-70
2023/12/03 03:41:16;;;;;;;54.78;18.42;;;2.70;87.60;;;;;;9176576;19;20010;-71
2023/12/03 03:44:21;;;;;;;41.15;17.23;;;2.70;87.60;;;;;;9179582;19;20011;-69
2023/12/03 03:47:29;;;;;;;50.00;18.55;;;2.70;87.60;;;;;;9177507;19;20022;-69
2023/12/03 03:50:34;;;;;;;48.00;17.20;;;2.70;87.50;;;;;;9178578;19;20126;-72
2023/12/03 03:53:42;;;;;;;49.10;16.65;;;2.70;87.60;;;;;;9179630;19;20011;-70
2023/12/03 03:56:50;;;;;;;46.30;18.40;;;2.70;87.60;;;;;;9174836;19;20360;-70
2023/12/03 03:59:58;;;;;;;51.67;18.27;;;2.70;87.60;;;;;;9178448;19;20029;-70
2023/12/03 04:03:03;;;;;;;52.38;18.40;;;2.70;87.60;;;;;;9178299;19;20010;-70
2023/12/03 04:06:11;;;;;;;58.92;18.08;;;2.70;87.70;;;;;;9178054;19;20070;-70
2023/12/03 04:09:17;;;;;;;51.08;16.73;;;2.70;87.70;;;;;;9178265;19;20503;-70
2023/12/03 04:12:28;;;;;;;47.38;16.83;;;2.70;87.70;;;;;;9175236;19;20146;-72
2023/12/03 04:15:34;;;;;;;44.42;16.60;;;2.70;87.60;;;;;;9177193;19;20066;-70
2023/12/03 04:18:41;;;;;;;48.97;18.48;;;2.70;87.60;;;;;;9178314;19;20070;-70
2023/12/03 04:21:47;;;;;;;53.03;18.17;;;2.70;87.60;;;;;;9177647;19;20019;-70
2023/12/03 04:24:55;;;;;;;49.42;17.80;;;2.70;87.60;;;;;;9178017;19;20078;-70
2023/12/03 04:28:04;;;;;;;51.70;17.20;;;2.70;87.50;;;;;;9177421;19;20018;-71
2023/12/03 04:31:25;;;;;;;48.92;16.38;;;2.70;87.60;;;;;;9175196;19;20048;-71
2023/12/03 04:34:31;;;;;;;47.53;16.20;;;2.70;87.60;;;;;;9175376;19;20026;-69
2023/12/03 04:37:38;;;;;;;55.65;17.10;;;2.70;87.60;;;;;;9176765;19;20519;-70
2023/12/03 04:40:44;;;;;;;53.58;17.20;;;2.70;88.10;;;;;;9175952;19;20020;-70
2023/12/03 04:43:54;;;;;;;43.55;15.80;;;2.70;87.60;;;;;;9177698;19;20022;-74
2023/12/03 04:47:00;;;;;;;49.15;16.38;;;2.70;87.60;;;;;;9176241;19;20010;-72
2023/12/03 04:50:09;;;;;;;52.10;16.67;;;2.70;87.60;;;;;;9176634;19;20010;-73
2023/12/03 04:53:15;;;;;;;42.97;15.48;;;2.70;87.70;;;;;;9174835;19;20021;-73
2023/12/03 04:56:23;;;;;;;52.28;16.90;;;2.70;87.60;;;;;;9171950;19;20102;-73
2023/12/03 04:59:31;;;;;;;45.53;17.77;;;2.70;87.60;;;;;;9176851;19;20021;-72
2023/12/03 05:02:39;;;;;;;46.20;15.85;;;2.70;87.70;;;;;;9175126;19;20015;-74
2023/12/03 05:05:44;;;;;;;47.42;16.50;;;2.70;87.70;;;;;;9177288;19;20011;-73
2023/12/03 05:08:52;;;;;;;47.10;16.60;;;2.70;87.60;;;;;;9176582;19;20019;-73
2023/12/03 05:11:57;;;;;;;52.20;17.73;;;2.70;87.60;;;;;;9175152;19;20028;-72
2023/12/03 05:15:08;;;;;;;44.22;16.52;;;2.70;87.70;;;;;;9175474;19;20018;-74
2023/12/03 05:18:14;;;;;;;49.40;16.92;;;3.00;87.90;;;;;;9174167;19;20106;-73
2023/12/03 05:21:22;;;;;;;45.63;17.35;;;2.70;87.70;;;;;;9175727;19;20033;-73
2023/12/03 05:24:27;;;;;;;45.55;17.15;;;2.70;87.80;;;;;;9175638;19;21039;-72
2023/12/03 05:27:35;;;;;;;49.70;17.13;;;2.80;87.90;;;;;;9175054;19;20015;-73
2023/12/03 05:30:43;;;;;;;49.38;15.90;;;2.80;87.90;;;;;;9173106;19;20014;-72
2023/12/03 05:33:50;;;;;;;54.63;18.05;;;2.80;88.00;;;;;;9172877;19;20018;-73
2023/12/03 05:36:56;;;;;;;50.95;17.23;;;2.80;88.00;;;;;;9174675;19;20763;-73
2023/12/03 05:40:04;;;;;;;55.95;18.08;;;2.80;87.80;;;;;;9174553;19;20468;-72
2023/12/03 05:43:09;;;;;;;54.55;17.63;;;2.80;87.90;;;;;;9171592;19;20003;-71
2023/12/03 05:46:20;;;;;;;53.78;17.70;;;2.80;87.90;;;;;;9174307;19;20550;-73
2023/12/03 05:49:25;;;;;;;54.10;18.63;;;2.80;88.00;;;;;;9173740;19;20360;-72
2023/12/03 05:52:33;;;;;;;53.63;17.23;;;2.80;87.90;;;;;;9173365;19;20020;-69
2023/12/03 05:55:38;;;;;;;53.55;18.50;;;2.80;87.90;;;;;;9174021;19;20319;-69
2023/12/03 05:58:46;;;;;;;57.40;17.95;;;2.80;87.90;;;;;;9170100;19;20019;-69
2023/12/03 06:01:54;;;;;;;57.60;18.48;;;2.80;87.90;;;;;;9172554;19;20478;-69
2023/12/03 06:05:02;;;;;;;56.75;17.02;;;2.80;87.90;;;;;;9173718;19;20018;-68
2023/12/03 06:08:08;;;;;;;56.60;16.27;;;2.90;87.90;;;;;;9172973;19;20014;-69
2023/12/03 06:11:16;;;;;;;44.33;15.52;;;2.80;87.90;;;;;;9174193;19;20018;-69
2023/12/03 06:14:21;;;;;;;51.60;16.40;;;2.80;87.90;;;;;;9171549;19;20010;-71
2023/12/03 06:17:31;;;;;;;48.60;16.40;;;2.90;87.90;;;;;;9171366;19;20027;-69
2023/12/03 06:20:37;;;;;;;51.25;16.60;;;2.90;88.60;;;;;;9172680;19;20018;-70
2023/12/03 06:23:45;;;;;;;60.25;17.77;;;2.90;88.00;;;;;;9172077;19;20010;-70
2023/12/03 06:26:50;;;;;;;60.80;17.83;;;2.90;88.00;;;;;;9170914;19;20018;-71
2023/12/03 06:29:58;;;;;;;52.13;15.73;;;2.80;87.90;;;;;;9173432;19;20019;-69
2023/12/03 06:33:06;;;;;;;63.97;18.75;;;2.90;88.00;;;;;;9171699;19;20014;-71
2023/12/03 06:36:15;;;;;;;64.10;19.27;;;2.90;88.10;;;;;;9172746;19;20479;-71
2023/12/03 06:39:20;;;;;;;60.33;18.83;;;2.90;88.00;;;;;;9172440;19;20479;-70
2023/12/03 06:42:28;;;;;;;68.65;18.63;;;2.90;88.00;;;;;;9172428;19;20015;-70
2023/12/03 06:45:33;;;;;;;64.95;18.77;;;2.90;88.10;;;;;;9171677;19;20022;-68
2023/12/03 06:48:46;;;;;;;63.45;19.50;;;2.90;88.10;;;;;;9171819;19;20475;-70
2023/12/03 06:51:51;;;;;;;69.03;20.20;;;2.90;88.10;;;;;;9172287;19;20021;-72
2023/12/03 06:54:59;;;;;;;60.55;19.95;;;2.90;88.10;;;;;;9179022;19;20023;-69
2023/12/03 06:58:04;;;;;;;57.95;19.67;;;2.90;88.10;;;;;;9176991;19;20014;-69
2023/12/03 07:01:15;;;;;;;61.88;19.33;;;2.90;88.10;;;;;;9180145;19;20367;-69
2023/12/03 07:04:23;;;;;;;60.63;20.33;;;3.00;88.10;;;;;;9180540;19;20021;-73
2023/12/03 07:07:31;;;;;;;65.93;21.17;;;2.90;88.10;;;;;;9180346;19;20093;-73
2023/12/03 07:10:36;;;;;;;72.28;22.08;;;2.90;88.00;;;;;;9180625;19;20026;-72
2023/12/03 07:13:44;;;;;;;61.10;20.02;;;2.90;88.00;;;;;;9177861;19;20467;-72
2023/12/03 07:16:49;;;;;;;56.60;21.20;;;2.90;88.10;;;;;;9178701;19;20018;-73
2023/12/03 07:20:00;;;;;;;54.70;21.17;;;3.00;88.10;;;;;;9180282;19;20022;-73
2023/12/03 07:23:06;;;;;;;62.22;20.73;;;2.90;88.10;;;;;;9178893;19;20094;-71
2023/12/03 07:26:14;;;;;;;63.25;21.85;;;3.00;88.20;;;;;;9179754;19;20030;-72
2023/12/03 07:29:20;;;;;;;59.13;22.13;;;3.00;88.20;;;;;;9178516;19;20066;-73
2023/12/03 07:32:29;;;;;;;55.58;21.02;;;3.00;88.20;;;;;;9178728;19;20022;-73
2023/12/03 07:35:37;;;;;;;57.30;21.35;;;3.00;88.30;;;;;;9180443;19;20073;-73
2023/12/03 07:38:44;;;;;;;56.72;23.55;;;3.00;88.20;;;;;;9179426;19;20019;-72
2023/12/03 07:41:52;;;;;;;60.88;22.25;;;3.00;88.20;;;;;;9179399;19;20440;-73
2023/12/03 07:44:59;;;;;;;62.28;23.73;;;3.10;88.90;;;;;;9179027;19;20156;-72
2023/12/03 07:48:05;;;;;;;65.20;23.25;;;3.10;88.30;;;;;;9177146;19;20026;-72
2023/12/03 07:51:15;;;;;;;64.13;24.17;;;3.10;88.30;;;;;;9179589;19;20026;-73
2023/12/03 07:54:21;;;;;;;57.35;23.25;;;3.10;88.30;;;;;;9176993;19;20015;-73
2023/12/03 07:57:28;;;;;;;55.95;22.70;;;3.10;88.20;;;;;;9177548;19;20590;-73
2023/12/03 08:00:34;;;;;;;62.70;24.48;;;3.10;88.30;;;;;;9180195;19;20014;-73
2023/12/03 08:03:41;;;;;;;53.45;21.83;;;3.10;88.20;;;;;;9178534;19;20372;-73
2023/12/03 08:06:49;;;;;;;55.80;23.05;;;3.10;88.30;;;;;;9179592;19;20021;-73
2023/12/03 08:09:57;;;;;;;47.03;21.40;;;3.10;88.30;;;;;;9181228;19;20011;-73
2023/12/03 08:13:03;;;;;;;57.90;23.33;;;3.10;88.30;;;;;;9179639;19;20018;-69
2023/12/03 08:16:11;;;;;;;49.67;21.52;;;3.10;88.20;;;;;;9177584;19;20471;-71
2023/12/03 08:19:17;;;;;;;53.03;22.20;;;3.10;88.20;;;;;;9179000;19;20014;-69
2023/12/03 08:22:27;;;;;;;50.55;23.00;;;3.10;88.30;;;;;;9178586;19;20014;-71
2023/12/03 08:25:33;;;;;;;52.17;21.40;;;3.10;88.20;;;;;;9180924;19;20798;-70
2023/12/03 08:28:40;;;;;;;50.40;19.90;;;3.10;88.30;;;;;;9180257;19;20041;-69
2023/12/03 08:31:46;;;;;;;49.03;20.92;;;3.10;88.20;;;;;;9179946;19;20392;-70
2023/12/03 08:34:53;;;;;;;54.05;22.00;;;3.10;88.30;;;;;;9177430;19;20419;-70
2023/12/03 08:38:02;;;;;;;52.60;22.58;;;3.10;88.20;;;;;;9180972;19;20019;-71
2023/12/03 08:41:10;;;;;;;46.72;20.40;;;3.10;88.30;;;;;;9177557;19;20021;-70
2023/12/03 08:44:15;;;;;;;59.55;23.10;;;3.10;88.30;;;;;;9178733;19;20007;-72
2023/12/03 08:47:23;;;;;;;53.90;22.00;;;3.10;88.30;;;;;;9179758;19;20467;-72
2023/12/03 08:50:31;;;;;;;56.72;21.92;;;3.10;88.20;;;;;;9178486;19;20034;-69
2023/12/03 08:53:41;;;;;;;51.22;22.08;;;3.10;88.10;;;;;;9178919;19;20499;-70
2023/12/03 08:56:47;;;;;;;57.15;22.33;;;3.00;88.00;;;;;;9174811;19;20491;-70
2023/12/03 08:59:55;;;;;;;51.42;21.40;;;3.00;88.00;;;;;;9177538;19;20779;-70
2023/12/03 09:03:01;;;;;;;49.38;20.92;;;3.00;88.10;;;;;;9175411;19;20797;-70
2023/12/03 09:06:09;;;;;;;46.97;19.67;;;3.00;88.10;;;;;;9173600;19;20020;-71
2023/12/03 09:09:17;;;;;;;54.78;22.08;;;3.00;88.20;;;;;;9176247;19;20022;-71
2023/12/03 09:12:25;;;;;;;48.35;20.67;;;3.00;88.10;;;;;;9172939;19;20014;-70
2023/12/03 09:15:30;;;;;;;49.88;21.42;;;2.90;88.00;;;;;;9172775;19;20014;-70
2023/12/03 09:18:38;;;;;;;46.63;19.58;;;2.90;88.00;;;;;;9176611;19;20022;-69
2023/12/03 09:21:44;;;;;;;48.63;21.00;;;2.90;88.00;;;;;;9178430;19;20014;-70
2023/12/03 09:24:54;;;;;;;56.78;20.92;;;2.90;88.00;;;;;;9177545;19;20522;-74
2023/12/03 09:28:00;;;;;;;52.08;19.95;;;2.90;88.00;;;;;;9176850;19;20017;-75
2023/12/03 09:31:08;;;;;;;63.08;20.85;;;2.90;88.10;;;;;;9174987;19;20598;-77
2023/12/03 09:34:14;;;;;;;53.03;20.00;;;2.90;88.00;;;;;;9173029;19;20031;-75
2023/12/03 09:37:21;;;;;;;55.15;20.52;;;2.90;88.60;;;;;;9174937;19;20014;-75
2023/12/03 09:40:29;;;;;;;52.30;20.92;;;2.90;88.00;;;;;;9172413;19;20483;-75
2023/12/03 09:43:41;;;;;;;56.88;20.40;;;2.90;88.00;;;;;;9172728;19;20794;-75
2023/12/03 09:46:48;;;;;;;49.05;20.65;;;2.90;88.00;;;;;;9173717;19;20047;-74
2023/12/03 09:49:57;;;;;;;56.63;21.95;;;2.90;88.00;;;;;;9173349;19;20017;-78
2023/12/03 09:53:05;;;;;;;54.88;20.77;;;2.90;88.10;;;;;;9174983;19;20018;-77
2023/12/03 09:56:16;;;;;;;64.85;21.77;;;2.90;88.10;;;;;;9170612;19;20018;-76
2023/12/03 09:59:25;;;;;;;59.13;21.90;;;2.90;88.10;;;;;;9174362;19;20015;-75
2023/12/03 10:02:34;;;;;;;55.28;20.88;;;2.90;88.20;;;;;;9175270;19;20396;-75
2023/12/03 10:05:40;;;;;;;59.30;21.77;;;3.00;88.30;;;;;;9174944;19;20530;-76
2023/12/03 10:08:48;;;;;;;61.05;21.88;;;3.00;88.30;;;;;;9175410;19;20360;-75
2023/12/03 10:11:59;;;;;;;53.83;21.33;;;3.00;88.30;;;;;;9173760;19;20015;-76
2023/12/03 10:15:08;;;;;;;56.67;21.00;;;3.00;88.20;;;;;;9173178;19;20455;-79
2023/12/03 10:18:15;;;;;;;50.35;21.10;;;3.10;88.40;;;;;;9166451;19;20480;-78
2023/12/03 10:21:24;;;;;;;54.10;21.23;;;3.10;88.40;;;;;;9173418;19;20387;-76
2023/12/03 10:24:30;;;;;;;54.67;20.77;;;3.10;88.40;;;;;;9174143;19;20051;-76
2023/12/03 10:27:42;;;;;;;49.17;20.50;;;3.20;88.40;;;;;;9167599;19;20022;-75
2023/12/03 10:30:49;;;;;;;49.97;19.55;;;3.20;88.30;;;;;;9173364;19;20018;-76
2023/12/03 10:33:57;;;;;;;42.35;17.98;;;3.20;88.30;;;;;;9174470;19;20006;-70
2023/12/03 10:37:03;;;;;;;49.17;20.15;;;3.30;88.30;;;;;;9173226;19;20022;-71
2023/12/03 10:40:11;;;;;;;43.88;18.25;;;3.30;88.90;;;;;;9171071;19;20011;-70
2023/12/03 10:43:19;;;;;;;45.08;17.92;;;3.30;88.20;;;;;;9174359;19;20052;-68
2023/12/03 10:46:27;;;;;;;48.88;17.10;;;3.40;88.20;;;;;;9171829;19;20015;-68
2023/12/03 10:49:33;;;;;;;43.80;18.50;;;3.30;88.10;;;;;;9174304;19;20015;-70
2023/12/03 10:52:43;;;;;;;47.88;17.02;;;3.40;88.10;;;;;;9171815;19;20015;-70
2023/12/03 10:55:49;;;;;;;44.95;16.98;;;3.40;88.60;;;;;;9170913;19;20090;-72
2023/12/03 10:59:03;;;;;;;38.55;16.10;;;3.40;88.00;;;;;;9170234;19;20010;-71
2023/12/03 11:02:11;;;;;;;45.50;17.52;;;3.40;88.00;;;;;;9174407;19;20051;-72
2023/12/03 11:05:28;;;;;;;40.28;15.57;;;3.40;88.00;;;;;;9171568;19;20052;-73
2023/12/03 11:08:34;;;;;;;39.92;15.55;;;3.40;88.00;;;;;;9172670;19;20014;-69
2023/12/03 11:11:42;;;;;;;41.97;16.33;;;3.40;87.90;;;;;;9174307;19;20025;-72
2023/12/03 11:14:51;;;;;;;38.53;15.95;;;3.40;87.90;;;;;;9172162;19;20042;-69
2023/12/03 11:18:00;;;;;;;36.67;15.68;;;3.40;87.90;;;;;;9169532;19;20009;-68
2023/12/03 11:21:15;;;;;;;37.80;14.57;;;3.40;87.90;;;;;;9170999;19;20372;-71
2023/12/03 11:24:49;;;;;;;33.65;14.85;;;3.40;87.80;;;;;;9170044;19;20034;-70
2023/12/03 11:27:54;;;;;;;36.70;15.07;;;3.40;87.80;;;;;;9168725;19;20428;-70
2023/12/03 11:31:05;;;;;;;31.77;15.20;;;3.40;87.80;;;;;;9169945;19;20014;-70
2023/12/03 11:34:13;;;;;;;34.88;14.10;;;3.40;87.80;;;;;;9170850;19;20022;-70
2023/12/03 11:37:23;;;;;;;35.05;14.65;;;3.40;87.70;;;;;;9167405;19;20017;-71
2023/12/03 11:40:35;;;;;;;36.20;13.90;;;3.40;87.70;;;;;;9171841;19;20047;-71
2023/12/03 11:43:43;;;;;;;30.60;13.05;;;3.40;87.70;;;;;;9177484;19;20124;-75
2023/12/03 11:47:05;;;;;;;35.50;14.10;;;3.40;87.60;;;;;;9176622;19;20019;-76
2023/12/03 11:50:15;;;;;;;35.40;13.82;;;3.40;87.60;;;;;;9179574;19;20016;-73
2023/12/03 11:53:35;;;;;;;33.78;14.23;;;3.50;87.60;;;;;;9177345;19;20048;-74
2023/12/03 11:56:43;;;;;;;32.58;13.15;;;3.50;87.50;;;;;;9171913;19;20025;-76
2023/12/03 11:59:49;;;;;;;32.80;12.50;;;3.50;87.60;;;;;;9177108;19;20500;-77
2023/12/03 12:03:02;;;;;;;31.08;12.52;;;3.50;87.60;;;;;;9176158;19;20017;-76
2023/12/03 12:06:08;;;;;;;35.40;13.45;;;3.50;87.50;;;;;;9175496;19;20018;-75
2023/12/03 12:09:24;;;;;;;30.27;12.02;;;3.50;87.50;;;;;;9174288;19;20025;-74
2023/12/03 12:12:29;;;;;;;33.30;13.38;;;3.50;87.50;;;;;;9175806;19;20022;-75
2023/12/03 12:15:39;;;;;;;39.38;14.57;;;3.50;87.40;;;;;;9174441;19;20017;-75
2023/12/03 12:18:48;;;;;;;31.00;12.50;;;3.60;87.40;;;;;;9170827;19;20022;-75
2023/12/03 12:21:57;;;;;;;32.50;14.27;;;3.60;87.40;;;;;;9180189;19;20357;-75
2023/12/03 12:25:04;;;;;;;35.28;13.32;;;3.60;87.30;;;;;;9177494;19;20021;-76
2023/12/03 12:28:12;;;;;;;41.95;13.00;;;3.60;87.30;;;;;;9165855;19;20014;-75
2023/12/03 12:31:19;;;;;;;29.40;13.38;;;3.60;87.30;;;;;;9137880;19;20014;-75
2023/12/03 12:34:30;;;;;;;38.60;14.57;;;3.60;87.20;;;;;;9153030;19;20025;-76
2023/12/03 12:37:35;;;;;;;33.65;13.70;;;3.60;87.20;;;;;;9177440;19;20074;-76
2023/12/03 12:40:57;;;;;;;28.65;12.25;;;3.60;87.20;;;;;;9174159;19;20023;-76
2023/12/03 12:44:02;;;;;;;28.95;12.55;;;3.70;87.20;;;;;;9176325;19;20022;-76
2023/12/03 12:47:10;;;;;;;31.90;12.52;;;3.70;87.20;;;;;;9177258;19;20475;-77
2023/12/03 12:50:18;;;;;;;35.97;14.15;;;3.70;87.10;;;;;;9174630;19;20018;-76
2023/12/03 12:53:26;;;;;;;31.17;12.82;;;3.70;87.00;;;;;;9179275;19;20358;-73
2023/12/03 12:56:32;;;;;;;30.45;12.23;;;3.60;87.00;;;;;;9172837;19;20111;-75
2023/12/03 12:59:40;;;;;;;36.20;14.15;;;3.60;86.90;;;;;;9177287;19;20014;-75
2023/12/03 13:02:45;;;;;;;29.40;12.73;;;3.60;86.90;;;;;;9173708;19;20022;-75
2023/12/03 13:05:55;;;;;;;32.13;12.63;;;3.60;86.90;;;;;;9174450;19;20642;-76
2023/12/03 13:09:01;;;;;;;30.40;11.85;;;3.60;86.90;;;;;;9178001;19;20022;-72
2023/12/03 13:12:09;;;;;;;34.55;13.68;;;3.60;86.90;;;;;;9172369;19;20014;-75
2023/12/03 13:15:17;;;;;;;35.72;14.13;;;3.60;86.90;;;;;;9175960;19;20026;-74
2023/12/03 13:18:24;;;;;;;30.67;14.15;;;3.60;86.80;;;;;;9174367;19;20013;-76
2023/12/03 13:21:34;;;;;;;31.73;12.88;;;3.60;86.80;;;;;;9174411;19;20014;-76
2023/12/03 13:24:41;;;;;;;29.85;13.02;;;3.60;86.80;;;;;;9175782;19;20022;-75
2023/12/03 13:27:47;;;;;;;30.63;13.20;;;3.60;86.80;;;;;;9176191;19;20388;-75
2023/12/03 13:30:54;;;;;;;35.92;13.93;;;3.60;87.40;;;;;;9174490;19;20420;-75
2023/12/03 13:34:00;;;;;;;28.02;12.98;;;3.60;86.80;;;;;;9176845;19;20026;-75
2023/12/03 13:37:10;;;;;;;28.85;13.23;;;3.60;86.80;;;;;;9173542;19;20010;-73
2023/12/03 13:40:16;;;;;;;25.70;11.18;;;3.60;86.70;;;;;;9175102;19;20376;-75
2023/12/03 13:43:24;;;;;;;27.13;12.25;;;3.60;86.70;;;;;;9175030;19;20037;-74
2023/12/03 13:46:29;;;;;;;28.25;11.70;;;3.60;86.80;;;;;;9174454;19;20498;-74
2023/12/03 13:49:37;;;;;;;30.38;11.80;;;3.60;86.70;;;;;;9172680;19;20014;-73
2023/12/03 13:52:45;;;;;;;32.70;11.73;;;3.60;86.70;;;;;;9172493;19;20029;-76
2023/12/03 13:55:53;;;;;;;28.92;11.98;;;3.60;86.70;;;;;;9172922;19;20102;-75
2023/12/03 13:58:58;;;;;;;32.85;12.63;;;3.60;86.60;;;;;;9165642;19;20021;-78
2023/12/03 14:02:07;;;;;;;30.23;13.02;;;3.70;86.60;;;;;;9173515;19;20014;-71
2023/12/03 14:05:13;;;;;;;30.02;11.55;;;3.70;86.60;;;;;;9171943;19;20801;-71
2023/12/03 14:08:33;;;;;;;25.77;11.75;;;3.70;86.60;;;;;;9173566;19;20775;-73
2023/12/03 14:11:38;;;;;;;30.67;12.80;;;3.60;86.50;;;;;;9173995;19;20014;-70
2023/12/03 14:14:46;;;;;;;31.48;12.30;;;3.70;86.50;;;;;;9170668;19;20014;-70
2023/12/03 14:17:52;;;;;;;27.45;12.05;;;3.70;86.50;;;;;;9172508;19;20011;-74
2023/12/03 14:21:00;;;;;;;28.30;11.75;;;3.70;86.40;;;;;;9170302;19;20586;-70
2023/12/03 14:24:08;;;;;;;28.23;12.65;;;3.70;86.30;;;;;;9171693;19;20381;-73
2023/12/03 14:27:16;;;;;;;25.90;12.38;;;3.70;86.30;;;;;;9172822;19;20030;-71
2023/12/03 14:30:21;;;;;;;27.90;12.38;;;3.70;86.30;;;;;;9172872;19;20018;-73
2023/12/03 14:33:29;;;;;;;29.35;12.07;;;3.70;86.30;;;;;;9171661;19;20020;-72
2023/12/03 14:36:34;;;;;;;31.83;12.32;;;3.70;86.30;;;;;;9173758;19;20023;-72
2023/12/03 14:39:45;;;;;;;30.33;11.73;;;3.70;86.30;;;;;;9172421;19;20025;-72
2023/12/03 14:42:50;;;;;;;28.80;12.95;;;3.70;86.20;;;;;;9172025;19;20926;-72
2023/12/03 14:45:57;;;;;;;34.03;13.52;;;3.60;86.20;;;;;;9171125;19;20006;-70
2023/12/03 14:49:03;;;;;;;36.35;12.63;;;3.60;86.10;;;;;;9171270;19;20017;-73
2023/12/03 14:52:11;;;;;;;28.27;12.60;;;3.60;86.10;;;;;;9171923;19;22054;-72
2023/12/03 14:55:19;;;;;;;26.35;11.45;;;3.60;86.10;;;;;;9167949;19;20022;-71
2023/12/03 14:58:27;;;;;;;29.08;11.70;;;3.60;86.10;;;;;;9163536;19;20018;-70
2023/12/03 15:01:34;;;;;;;26.80;12.35;;;3.60;86.10;;;;;;9169726;19;20015;-71
2023/12/03 15:04:42;;;;;;;31.10;12.27;;;3.60;86.10;;;;;;9169665;19;20014;-70
2023/12/03 15:07:48;;;;;;;32.08;12.43;;;3.60;86.10;;;;;;9166734;19;20041;-72
2023/12/03 15:10:58;;;;;;;30.92;12.35;;;3.60;86.10;;;;;;9170817;19;20014;-72
2023/12/03 15:14:04;;;;;;;26.60;11.65;;;3.60;86.00;;;;;;9170339;19;20390;-70
2023/12/03 15:17:11;;;;;;;25.35;10.73;;;3.60;86.00;;;;;;9173871;19;20476;-71
2023/12/03 15:20:17;;;;;;;27.42;11.50;;;3.60;86.00;;;;;;9179247;19;20019;-74
2023/12/03 15:23:24;;;;;;;26.30;11.55;;;3.60;85.90;;;;;;9178211;19;20025;-69
2023/12/03 15:26:33;;;;;;;20.48;9.73;;;3.60;86.00;;;;;;9179390;19;20406;-70
2023/12/03 15:29:40;;;;;;;32.50;11.98;;;3.60;85.90;;;;;;9178593;19;20023;-69
2023/12/03 15:32:46;;;;;;;28.83;11.68;;;3.50;85.90;;;;;;9175608;19;20066;-69
2023/12/03 15:35:54;;;;;;;26.58;11.60;;;3.50;85.80;;;;;;9177145;19;20026;-69
2023/12/03 15:38:59;;;;;;;26.38;10.95;;;3.50;85.80;;;;;;9173422;19;20024;-73
2023/12/03 15:42:09;;;;;;;27.92;10.75;;;3.50;85.90;;;;;;9179354;19;20011;-69
2023/12/03 15:45:15;;;;;;;26.92;11.43;;;3.50;85.80;;;;;;9173563;19;20019;-68
2023/12/03 15:48:23;;;;;;;27.10;11.65;;;3.50;85.90;;;;;;9176830;19;20010;-71
2023/12/03 15:51:30;;;;;;;33.08;12.85;;;3.40;85.90;;;;;;9171696;19;20024;-71
2023/12/03 15:54:38;;;;;;;34.33;12.05;;;3.50;85.90;;;;;;9176110;19;20018;-72
2023/12/03 15:57:46;;;;;;;27.35;11.35;;;3.40;85.80;;;;;;9172196;19;20029;-70
2023/12/03 16:00:53;;;;;;;27.63;12.23;;;3.40;85.80;;;;;;9176812;19;20014;-70
2023/12/03 16:03:59;;;;;;;25.60;12.23;;;3.40;85.80;;;;;;9177635;19;20023;-71